createdAt,value
2019-03-21T10:29:07.446Z,7.22
2019-03-21T10:31:35.832Z,13.10
2019-03-21T10:34:04.240Z,11.08
2019-03-21T10:36:34.959Z,10.35
2019-03-21T10:39:04.036Z,10.35
2019-03-21T10:41:32.419Z,7.10
2019-03-21T10:44:00.825Z,9.05
2019-03-21T10:46:29.216Z,8.53
2019-03-21T10:48:57.619Z,10.82
2019-03-21T10:51:26.001Z,8.23
2019-03-21T10:53:54.400Z,9.98
2019-03-21T10:56:22.773Z,7.53
2019-03-21T10:58:51.155Z,8.38
2019-03-21T11:01:19.536Z,10.25
2019-03-21T11:03:47.947Z,11.03
2019-03-21T11:06:16.320Z,9.75
2019-03-21T11:08:44.712Z,10.50
2019-03-21T11:11:13.257Z,7.75
2019-03-21T11:13:41.653Z,8.53
2019-03-21T11:16:10.032Z,10.25
2019-03-21T11:18:38.411Z,7.53
2019-03-21T11:21:06.789Z,9.05
2019-03-21T11:23:35.177Z,8.23
2019-03-21T11:26:03.574Z,7.92
2019-03-21T11:28:31.982Z,6.60
2019-03-21T11:31:00.380Z,8.55
2019-03-21T11:33:28.763Z,6.60
2019-03-21T11:35:57.146Z,8.70
2019-03-21T11:38:25.522Z,9.38
2019-03-21T11:40:53.932Z,8.78
2019-03-21T11:43:22.311Z,6.83
2019-03-21T11:45:50.742Z,10.60
2019-03-21T11:48:19.136Z,10.88
2019-03-21T11:50:47.521Z,6.70
2019-03-21T11:53:15.901Z,10.50
2019-03-21T11:55:44.301Z,8.13
2019-03-21T11:58:12.682Z,12.65
2019-03-21T12:00:43.918Z,6.45
2019-03-21T12:03:11.694Z,7.62
2019-03-21T12:05:40.091Z,7.45
2019-03-21T12:08:08.461Z,6.78
2019-03-21T12:10:37.032Z,6.33
2019-03-21T12:13:05.408Z,8.53
2019-03-21T12:15:33.804Z,8.43
2019-03-21T12:18:02.192Z,7.25
2019-03-21T12:20:31.712Z,6.40
2019-03-21T12:23:00.092Z,5.12
2019-03-21T12:25:28.475Z,6.45
2019-03-21T12:27:56.903Z,8.50
2019-03-21T12:30:36.319Z,6.37
2019-03-21T12:33:04.982Z,6.65
2019-03-21T12:35:33.385Z,5.87
2019-03-21T12:38:01.758Z,7.28
2019-03-21T12:40:30.170Z,9.55
2019-03-21T12:42:58.524Z,7.37
2019-03-21T12:45:26.911Z,7.50
2019-03-21T12:47:55.284Z,6.33
2019-03-21T12:50:23.663Z,8.83
2019-03-21T12:52:52.048Z,6.28
2019-03-21T12:55:20.442Z,5.65
2019-03-21T12:57:48.840Z,7.90
2019-03-21T13:00:29.262Z,6.85
2019-03-21T13:02:57.644Z,6.25
2019-03-21T13:05:30.323Z,6.12
2019-03-21T13:07:58.710Z,7.65
2019-03-21T13:10:27.117Z,6.75
2019-03-21T13:12:55.484Z,8.30
2019-03-21T13:15:29.822Z,7.95
2019-03-21T13:17:53.924Z,7.85
2019-03-21T13:20:22.333Z,6.17
2019-03-21T13:22:53.606Z,6.30
2019-03-21T13:25:22.279Z,8.38
2019-03-21T13:27:50.653Z,6.12
2019-03-21T13:30:19.039Z,9.38
2019-03-21T13:32:47.353Z,10.35
2019-03-21T13:35:15.771Z,7.05
2019-03-21T13:37:44.114Z,6.75
2019-03-21T13:40:12.503Z,7.17
2019-03-21T13:42:40.920Z,12.20
2019-03-21T13:45:09.311Z,7.17
2019-03-21T13:47:37.696Z,7.67
2019-03-21T13:50:09.291Z,7.87
2019-03-21T13:52:37.761Z,10.32
2019-03-21T13:55:07.297Z,6.65
2019-03-21T13:57:35.695Z,7.90
2019-03-21T14:00:07.401Z,9.65
2019-03-21T14:02:35.799Z,6.90
2019-03-21T14:05:06.624Z,6.53
2019-03-21T14:07:35.040Z,7.17
2019-03-21T14:10:05.509Z,10.55
2019-03-21T14:12:33.910Z,7.25
2019-03-21T14:15:02.297Z,6.08
2019-03-21T14:17:30.692Z,6.70
2019-03-21T14:19:59.058Z,6.67
2019-03-21T14:22:27.496Z,8.55
2019-03-21T14:24:55.887Z,6.17
2019-03-21T14:27:26.017Z,8.75
2019-03-21T14:30:01.296Z,7.70
2019-03-21T14:32:24.578Z,6.42
2019-03-21T14:34:52.946Z,9.83
2019-03-21T14:37:21.342Z,5.83
2019-03-21T14:39:49.719Z,8.73
2019-03-21T14:42:18.111Z,9.73
2019-03-21T14:44:46.548Z,10.80
2019-03-21T14:47:14.943Z,8.25
2019-03-21T14:49:43.312Z,7.67
2019-03-21T14:52:11.701Z,9.05
2019-03-21T14:54:40.062Z,8.20
2019-03-21T14:57:08.464Z,9.35
2019-03-21T14:59:36.848Z,8.73
2019-03-21T15:02:05.255Z,11.65
2019-03-21T15:04:33.632Z,9.93
2019-03-21T15:07:02.023Z,9.30
2019-03-21T15:09:30.407Z,9.33
2019-03-21T15:11:59.039Z,12.23
2019-03-21T15:14:27.464Z,8.50
2019-03-21T15:16:55.883Z,10.53
2019-03-21T15:19:24.253Z,9.45
2019-03-21T15:21:52.619Z,7.55
2019-03-21T15:24:21.031Z,9.10
2019-03-21T15:26:51.218Z,10.45
2019-03-21T15:29:19.442Z,7.05
2019-03-21T15:31:47.744Z,7.85
2019-03-21T15:34:16.144Z,9.35
2019-03-21T15:36:44.530Z,10.50
2019-03-21T15:39:12.963Z,9.70
2019-03-21T15:41:41.330Z,8.08
2019-03-21T15:44:09.738Z,8.88
2019-03-21T15:46:38.112Z,7.55
2019-03-21T15:49:06.517Z,8.90
2019-03-21T15:51:34.900Z,10.30
2019-03-21T15:54:03.299Z,7.70
2019-03-21T15:56:31.669Z,7.58
2019-03-21T15:59:00.055Z,7.65
2019-03-21T16:01:28.432Z,8.33
2019-03-21T16:03:56.832Z,8.08
2019-03-21T16:06:25.196Z,9.55
2019-03-21T16:08:53.597Z,6.55
2019-03-21T16:11:21.955Z,9.10
2019-03-21T16:13:50.360Z,9.03
2019-03-21T16:16:18.744Z,8.68
2019-03-21T16:18:47.129Z,7.60
2019-03-21T16:21:15.491Z,10.90
2019-03-21T16:23:43.902Z,7.40
2019-03-21T16:26:12.270Z,6.95
2019-03-21T16:28:47.705Z,6.03
2019-03-21T16:31:16.079Z,8.65
2019-03-21T16:33:44.483Z,6.70
2019-03-21T16:36:12.856Z,7.20
2019-03-21T16:38:41.253Z,7.20
2019-03-21T16:41:09.630Z,8.43
2019-03-21T16:43:38.042Z,8.80
2019-03-21T16:46:06.417Z,7.28
2019-03-21T16:48:34.815Z,7.40
2019-03-21T16:51:03.301Z,8.90
2019-03-21T16:53:31.682Z,6.65
2019-03-21T16:56:00.072Z,7.05
2019-03-21T16:58:28.458Z,7.10
2019-03-21T17:00:56.835Z,7.47
2019-03-21T17:03:25.237Z,5.75
2019-03-21T17:05:53.600Z,8.00
2019-03-21T17:08:22.029Z,7.92
2019-03-21T17:10:50.467Z,7.65
2019-03-21T17:13:20.580Z,6.78
2019-03-21T17:15:48.979Z,5.78
2019-03-21T17:18:17.327Z,5.85
2019-03-21T17:20:45.744Z,5.62
2019-03-21T17:23:14.175Z,9.60
2019-03-21T17:25:42.557Z,6.65
2019-03-21T17:28:10.928Z,6.92
2019-03-21T17:30:39.319Z,5.50
2019-03-21T17:33:07.694Z,7.75
2019-03-21T17:35:36.083Z,8.70
2019-03-21T17:38:04.455Z,5.60
2019-03-21T17:40:32.848Z,5.92
2019-03-21T17:43:01.244Z,7.42
2019-03-21T17:45:29.632Z,8.98
2019-03-21T17:47:57.997Z,6.87
2019-03-21T17:50:26.396Z,8.08
2019-03-21T17:52:54.773Z,12.45
2019-03-21T17:55:23.182Z,10.05
2019-03-21T17:57:51.559Z,9.33
2019-03-21T18:00:25.127Z,14.63
2019-03-21T18:02:53.536Z,14.03
2019-03-21T18:05:21.940Z,23.73
2019-03-21T18:07:50.311Z,14.15
2019-03-21T18:10:26.070Z,12.35
2019-03-21T18:12:54.444Z,12.78
2019-03-21T18:15:22.835Z,15.63
2019-03-21T18:17:51.216Z,8.05
2019-03-21T18:20:19.618Z,12.37
2019-03-21T18:22:47.985Z,9.58
2019-03-21T18:25:16.397Z,8.53
2019-03-21T18:27:44.767Z,9.80
2019-03-21T18:30:13.162Z,12.00
2019-03-21T18:32:41.543Z,7.67
2019-03-21T18:35:09.944Z,15.93
2019-03-21T18:37:38.331Z,11.68
2019-03-21T18:40:08.446Z,9.23
2019-03-21T18:42:36.817Z,11.15
2019-03-21T18:45:07.710Z,11.48
2019-03-21T18:47:36.090Z,14.53
2019-03-21T18:50:09.128Z,13.22
2019-03-21T18:52:37.527Z,11.57
2019-03-21T18:55:07.215Z,10.65
2019-03-21T18:57:35.649Z,12.53
2019-03-21T19:00:07.096Z,12.25
2019-03-21T19:02:35.560Z,9.35
2019-03-21T19:05:05.724Z,12.15
2019-03-21T19:07:34.106Z,12.47
2019-03-21T19:10:02.875Z,7.35
2019-03-21T19:12:31.275Z,11.28
2019-03-21T19:14:59.679Z,14.93
2019-03-21T19:17:28.061Z,12.45
2019-03-21T19:19:56.472Z,20.35
2019-03-21T19:22:25.334Z,28.80
2019-03-21T19:24:53.716Z,27.80
2019-03-21T19:27:22.143Z,24.80
2019-03-21T19:29:50.555Z,29.82
2019-03-21T19:32:18.972Z,21.85
2019-03-21T19:34:47.365Z,16.67
2019-03-21T19:37:15.815Z,17.85
2019-03-21T19:39:44.194Z,17.02
2019-03-21T19:42:12.636Z,11.97
2019-03-21T19:44:41.023Z,15.08
2019-03-21T19:47:09.424Z,13.98
2019-03-21T19:49:37.795Z,17.05
2019-03-21T19:52:06.205Z,12.68
2019-03-21T19:54:34.574Z,13.93
2019-03-21T19:57:03.033Z,12.18
2019-03-21T19:59:31.412Z,13.03
2019-03-21T20:01:59.826Z,13.08
2019-03-21T20:04:28.194Z,15.95
2019-03-21T20:06:56.587Z,15.95
2019-03-21T20:09:24.969Z,10.82
2019-03-21T20:11:53.355Z,12.18
2019-03-21T20:14:21.728Z,13.20
2019-03-21T20:16:50.123Z,12.35
2019-03-21T20:19:18.503Z,16.40
2019-03-21T20:21:48.120Z,11.83
2019-03-21T20:24:16.799Z,8.58
2019-03-21T20:26:45.201Z,13.22
2019-03-21T20:29:15.513Z,15.93
2019-03-21T20:31:43.620Z,10.72
2019-03-21T20:34:13.012Z,11.60
2019-03-21T20:36:41.501Z,12.20
2019-03-21T20:39:09.875Z,11.12
2019-03-21T20:41:38.262Z,10.35
2019-03-21T20:44:15.016Z,12.15
2019-03-21T20:46:36.681Z,11.28
2019-03-21T20:49:05.054Z,10.18
2019-03-21T20:51:33.445Z,24.80
2019-03-21T20:54:01.818Z,17.25
2019-03-21T20:56:31.848Z,13.53
2019-03-21T20:59:00.220Z,14.35
2019-03-21T21:01:28.606Z,11.53
2019-03-21T21:03:56.994Z,14.73
2019-03-21T21:06:25.417Z,12.18
2019-03-21T21:08:53.797Z,14.05
2019-03-21T21:11:22.184Z,11.40
2019-03-21T21:13:50.551Z,14.10
2019-03-21T21:16:18.931Z,16.37
2019-03-21T21:18:47.319Z,13.68
2019-03-21T21:21:15.787Z,20.25
2019-03-21T21:23:44.080Z,10.18
2019-03-21T21:26:12.470Z,11.33
2019-03-21T21:28:40.844Z,10.70
2019-03-21T21:31:09.242Z,12.25
2019-03-21T21:33:39.238Z,8.78
2019-03-21T21:36:07.623Z,10.93
2019-03-21T21:38:35.993Z,10.35
2019-03-21T21:41:04.374Z,13.55
2019-03-21T21:43:32.762Z,10.80
2019-03-21T21:46:01.133Z,13.45
2019-03-21T21:48:29.522Z,14.95
2019-03-21T21:50:57.831Z,13.05
2019-03-21T21:53:26.211Z,17.52
2019-03-21T21:55:54.591Z,11.18
2019-03-21T21:58:22.992Z,15.35
2019-03-21T22:00:51.367Z,13.48
2019-03-21T22:03:19.777Z,13.83
2019-03-21T22:05:48.135Z,15.30
2019-03-21T22:08:16.528Z,11.78
2019-03-21T22:10:44.898Z,11.53
2019-03-21T22:13:13.291Z,13.53
2019-03-21T22:15:41.662Z,13.60
2019-03-21T22:18:10.045Z,9.90
2019-03-21T22:20:38.412Z,15.98
2019-03-21T22:23:06.800Z,11.55
2019-03-21T22:25:35.162Z,10.93
2019-03-21T22:28:03.557Z,16.25
2019-03-21T22:30:31.982Z,10.70
2019-03-21T22:33:00.373Z,11.70
2019-03-21T22:35:28.784Z,11.00
2019-03-21T22:37:57.126Z,12.85
2019-03-21T22:40:25.500Z,13.85
2019-03-21T22:42:53.891Z,12.13
2019-03-21T22:45:22.264Z,11.68
2019-03-21T22:47:50.945Z,11.08
2019-03-21T22:50:19.334Z,13.35
2019-03-21T22:52:47.738Z,12.03
2019-03-21T22:55:16.131Z,13.45
2019-03-21T22:57:44.533Z,11.68
2019-03-21T23:00:18.150Z,12.20
2019-03-21T23:02:46.544Z,11.65
2019-03-21T23:05:14.925Z,12.60
2019-03-21T23:07:43.331Z,12.13
2019-03-21T23:10:11.880Z,19.42
2019-03-21T23:12:40.445Z,15.78
2019-03-21T23:15:10.252Z,11.95
2019-03-21T23:17:38.804Z,15.80
2019-03-21T23:20:11.848Z,13.05
2019-03-21T23:22:40.257Z,16.57
2019-03-21T23:25:09.665Z,12.80
2019-03-21T23:27:38.073Z,12.82
2019-03-21T23:30:11.839Z,15.23
2019-03-21T23:32:40.245Z,13.20
2019-03-21T23:35:08.618Z,12.53
2019-03-21T23:37:37.439Z,11.73
2019-03-21T23:40:11.401Z,10.72
2019-03-21T23:42:39.803Z,15.28
2019-03-21T23:45:09.903Z,11.68
2019-03-21T23:47:38.272Z,13.38
2019-03-21T23:50:11.552Z,14.15
2019-03-21T23:55:08.403Z,15.45
2019-03-21T23:57:36.769Z,15.45
